Time;durP1;ratioP1;P1;durP2;ratioP2;P2;SDS_P1;SDS_P2;PMS_P1;PMS_P2;Temp;Humidity;BMP_temperature;BMP_pressure;BME280_temperature;BME280_humidity;BME280_pressure;Samples;Min_cycle;Max_cycle;Signal;HPM_P1;HPM_P2
2022/08/03 00:01:39;;;;;;;7.20;3.43;;;17.00;56.90;;;;;;5062342;28;46435;-72
2022/08/03 00:04:06;;;;;;;6.73;2.30;;;17.00;56.80;;;;;;5061977;28;47218;-72
2022/08/03 00:06:32;;;;;;;6.27;3.07;;;17.00;56.80;;;;;;5062328;28;46377;-72
2022/08/03 00:08:58;;;;;;;5.20;2.70;;;17.00;57.00;;;;;;5060124;28;46435;-72
2022/08/03 00:11:23;;;;;;;6.20;2.33;;;16.90;56.90;;;;;;5061051;28;46310;-73
2022/08/03 00:13:49;;;;;;;5.93;2.37;;;16.90;57.20;;;;;;5059818;28;47202;-73
2022/08/03 00:16:15;;;;;;;4.60;2.67;;;16.80;57.30;;;;;;5062819;28;46504;-73
2022/08/03 00:18:41;;;;;;;5.83;2.67;;;16.80;57.40;;;;;;5061835;28;46330;-72
2022/08/03 00:21:07;;;;;;;8.00;2.93;;;16.80;57.90;;;;;;5060881;28;46408;-72
2022/08/03 00:23:33;;;;;;;9.13;3.10;;;16.70;57.80;;;;;;5062229;28;47258;-73
2022/08/03 00:25:59;;;;;;;5.27;2.23;;;16.70;57.80;;;;;;5061597;28;46452;-72
2022/08/03 00:28:25;;;;;;;5.90;3.27;;;16.60;57.70;;;;;;5061375;28;46450;-72
2022/08/03 00:30:50;;;;;;;5.90;2.70;;;16.50;57.60;;;;;;5060003;28;46564;-72
2022/08/03 00:33:16;;;;;;;8.03;2.50;;;16.50;57.70;;;;;;5058475;28;47097;-72
2022/08/03 00:35:42;;;;;;;7.00;2.83;;;16.40;57.50;;;;;;5061242;28;46444;-72
2022/08/03 00:38:07;;;;;;;8.80;2.67;;;16.30;57.40;;;;;;5061787;28;46498;-73
2022/08/03 00:40:33;;;;;;;7.70;2.37;;;16.30;57.50;;;;;;5062072;28;46412;-72
2022/08/03 00:43:04;;;;;;;5.13;2.40;;;16.20;57.70;;;;;;5061622;28;46474;-72
2022/08/03 00:45:32;;;;;;;9.47;3.30;;;16.20;58.00;;;;;;5067347;28;46396;-72
2022/08/03 00:47:59;;;;;;;4.80;2.50;;;16.20;57.90;;;;;;5065492;28;46711;-72
2022/08/03 00:50:26;;;;;;;5.90;2.43;;;16.20;57.70;;;;;;5061488;28;45961;-72
2022/08/03 00:52:53;;;;;;;6.73;2.90;;;16.20;56.50;;;;;;5061074;28;46159;-71
2022/08/03 00:55:19;;;;;;;6.90;2.47;;;16.20;57.40;;;;;;5062263;28;46319;-72
2022/08/03 00:57:46;;;;;;;6.30;2.40;;;16.20;57.40;;;;;;5058615;28;45899;-72
2022/08/03 01:00:14;;;;;;;10.87;3.00;;;16.20;57.40;;;;;;5061052;28;46446;-72
2022/08/03 01:02:40;;;;;;;9.70;2.73;;;16.10;56.60;;;;;;5061146;28;47303;-72
2022/08/03 01:05:07;;;;;;;5.03;2.53;;;16.10;57.60;;;;;;5058377;28;46417;-72
2022/08/03 01:07:58;;;;;;;4.90;2.57;;;16.10;57.70;;;;;;5060312;28;46692;-73
2022/08/03 01:10:41;;;;;;;8.83;2.33;;;16.10;57.90;;;;;;5059700;28;46416;-72
2022/08/03 01:13:35;;;;;;;8.17;2.90;;;16.10;57.60;;;;;;5059357;28;47294;-72
2022/08/03 01:16:06;;;;;;;5.47;2.50;;;16.20;57.40;;;;;;5059737;28;46324;-72
2022/08/03 01:18:43;;;;;;;5.53;2.43;;;16.20;57.30;;;;;;5060776;28;46416;-73
2022/08/03 01:21:15;;;;;;;5.93;2.10;;;16.30;57.50;;;;;;5059916;28;46300;-72
2022/08/03 01:24:05;;;;;;;5.60;2.77;;;16.30;57.50;;;;;;5060374;28;46349;-72
2022/08/03 01:26:40;;;;;;;5.27;2.83;;;16.30;57.40;;;;;;5064450;28;46270;-73
2022/08/03 01:29:40;;;;;;;5.57;2.13;;;16.30;57.40;;;;;;5059866;28;45908;-73
2022/08/03 01:32:12;;;;;;;5.90;2.70;;;16.30;57.40;;;;;;5036300;28;46590;-72
2022/08/03 01:34:46;;;;;;;6.63;3.27;;;16.20;56.30;;;;;;5056520;28;47103;-73
2022/08/03 01:37:19;;;;;;;10.23;2.10;;;16.20;57.40;;;;;;5058908;28;46466;-72
2022/08/03 01:39:45;;;;;;;6.60;2.03;;;16.10;57.70;;;;;;5059110;28;46476;-72
2022/08/03 01:42:12;;;;;;;6.80;2.27;;;16.10;58.00;;;;;;5060750;28;46411;-72
2022/08/03 01:44:41;;;;;;;8.00;2.70;;;16.00;57.40;;;;;;5059430;28;46718;-72
2022/08/03 01:47:09;;;;;;;7.37;2.70;;;15.90;58.40;;;;;;5059860;28;46341;-73
2022/08/03 01:49:39;;;;;;;4.73;2.20;;;15.80;58.80;;;;;;5061439;28;46367;-72
2022/08/03 01:52:06;;;;;;;3.60;2.27;;;15.70;59.10;;;;;;5061170;28;46529;-73
2022/08/03 01:54:40;;;;;;;4.20;2.17;;;15.70;59.60;;;;;;5058924;28;46864;-73
2022/08/03 01:57:07;;;;;;;4.37;2.20;;;15.60;59.60;;;;;;5058459;28;46500;-73
2022/08/03 01:59:35;;;;;;;7.90;2.50;;;15.60;59.60;;;;;;5059789;28;46623;-72
2022/08/03 02:02:02;;;;;;;6.43;2.63;;;15.50;59.70;;;;;;5060265;28;46602;-72
2022/08/03 02:04:28;;;;;;;7.70;2.27;;;15.50;59.90;;;;;;5057605;28;47796;-72
2022/08/03 02:06:54;;;;;;;5.90;2.07;;;15.50;59.90;;;;;;5059620;28;46520;-72
2022/08/03 02:09:22;;;;;;;4.50;2.47;;;15.40;59.80;;;;;;5057814;28;46449;-72
2022/08/03 02:11:49;;;;;;;5.43;2.07;;;15.40;59.90;;;;;;5060385;28;46424;-72
2022/08/03 02:14:16;;;;;;;11.90;2.63;;;15.40;59.90;;;;;;5056822;28;46405;-72
2022/08/03 02:16:43;;;;;;;8.73;2.80;;;15.40;59.90;;;;;;5054712;28;46486;-73
2022/08/03 02:19:10;;;;;;;6.20;2.67;;;15.40;60.00;;;;;;5059554;28;46508;-72
2022/08/03 02:21:36;;;;;;;10.80;2.67;;;15.30;59.90;;;;;;5058627;28;46780;-72
2022/08/03 02:24:04;;;;;;;7.70;2.60;;;15.30;59.90;;;;;;5059184;28;47001;-72
2022/08/03 02:26:30;;;;;;;10.97;2.47;;;15.30;59.80;;;;;;5059531;28;46481;-72
2022/08/03 02:29:02;;;;;;;15.03;3.00;;;15.30;59.80;;;;;;5058917;28;46315;-72
2022/08/03 02:31:31;;;;;;;19.77;3.17;;;15.30;59.90;;;;;;5059164;28;46461;-72
2022/08/03 02:34:03;;;;;;;4.83;2.57;;;15.30;60.00;;;;;;5058418;28;46375;-71
2022/08/03 02:36:33;;;;;;;10.03;2.60;;;15.30;59.90;;;;;;5059183;28;46733;-72
2022/08/03 02:39:00;;;;;;;9.00;2.70;;;15.30;59.70;;;;;;5058882;28;46397;-72
2022/08/03 02:42:01;;;;;;;5.60;2.50;;;15.40;59.70;;;;;;5056409;28;46516;-72
2022/08/03 02:44:28;;;;;;;9.60;2.70;;;15.30;59.60;;;;;;5056295;28;46314;-71
2022/08/03 02:47:00;;;;;;;6.20;3.30;;;15.30;59.60;;;;;;5058354;28;46369;-72
2022/08/03 02:49:27;;;;;;;5.33;2.67;;;15.30;59.70;;;;;;5057333;28;46368;-72
2022/08/03 02:51:54;;;;;;;15.13;3.10;;;15.30;59.80;;;;;;5059847;28;46620;-72
2022/08/03 02:54:23;;;;;;;8.40;2.90;;;15.30;59.80;;;;;;5052588;28;47380;-72
2022/08/03 02:56:50;;;;;;;5.50;2.70;;;15.30;59.80;;;;;;5060471;28;46394;-72
2022/08/03 02:59:18;;;;;;;5.93;2.80;;;15.30;59.80;;;;;;5065316;28;46436;-72
2022/08/03 03:01:45;;;;;;;5.33;2.60;;;15.30;59.80;;;;;;5062834;28;46436;-71
2022/08/03 03:04:11;;;;;;;5.13;2.50;;;15.30;59.80;;;;;;5061247;28;46770;-72
2022/08/03 03:06:39;;;;;;;8.90;2.40;;;15.30;59.80;;;;;;5060439;28;46604;-71
2022/08/03 03:09:05;;;;;;;9.40;2.80;;;15.30;59.90;;;;;;5061694;28;45822;-72
2022/08/03 03:11:31;;;;;;;10.50;2.67;;;15.20;59.80;;;;;;5062794;28;45929;-72
2022/08/03 03:13:58;;;;;;;7.77;3.90;;;15.20;60.00;;;;;;5061432;28;46394;-72
2022/08/03 03:16:26;;;;;;;6.83;2.97;;;15.10;60.00;;;;;;5062758;28;46439;-72
2022/08/03 03:18:53;;;;;;;8.83;3.80;;;15.10;60.00;;;;;;5061349;28;46364;-72
2022/08/03 03:21:20;;;;;;;11.80;2.53;;;15.20;60.00;;;;;;5062418;28;46137;-71
2022/08/03 03:23:47;;;;;;;8.67;2.67;;;15.20;60.00;;;;;;5060736;28;46204;-72
2022/08/03 03:26:16;;;;;;;10.50;2.70;;;15.20;60.00;;;;;;5061393;28;46434;-71
2022/08/03 03:28:43;;;;;;;5.40;2.30;;;15.10;60.40;;;;;;5061683;28;46443;-72
2022/08/03 03:31:09;;;;;;;4.00;2.33;;;15.00;60.50;;;;;;5062615;28;46469;-72
2022/08/03 03:33:36;;;;;;;9.47;3.03;;;14.90;60.50;;;;;;5062446;28;46413;-72
2022/08/03 03:36:02;;;;;;;9.37;2.77;;;14.90;60.50;;;;;;5062364;28;45850;-72
2022/08/03 03:38:28;;;;;;;10.17;2.83;;;14.90;60.70;;;;;;5062446;28;46450;-72
2022/08/03 03:40:54;;;;;;;8.00;3.00;;;14.80;60.80;;;;;;5063586;28;46197;-71
2022/08/03 03:43:21;;;;;;;6.97;2.47;;;14.80;60.90;;;;;;5060651;28;47144;-72
2022/08/03 03:45:48;;;;;;;7.83;3.07;;;14.70;60.90;;;;;;5062970;28;46478;-72
2022/08/03 03:48:14;;;;;;;9.03;3.00;;;14.80;60.90;;;;;;5060498;28;46393;-71
2022/08/03 03:50:39;;;;;;;8.10;2.50;;;14.80;60.70;;;;;;5062942;28;46345;-72
2022/08/03 03:53:09;;;;;;;5.53;2.50;;;14.80;60.60;;;;;;5058063;28;47275;-71
2022/08/03 03:55:36;;;;;;;7.80;3.13;;;14.80;60.50;;;;;;5060612;28;46496;-72
2022/08/03 03:58:02;;;;;;;6.83;2.67;;;14.90;60.50;;;;;;5059537;28;46579;-72
2022/08/03 04:00:29;;;;;;;6.43;2.60;;;14.90;60.30;;;;;;5061038;28;46432;-71
2022/08/03 04:02:55;;;;;;;8.50;2.70;;;14.90;60.30;;;;;;5059403;28;47176;-71
2022/08/03 04:11:16;;;;;;;4.77;2.43;;;15.00;60.40;;;;;;5060945;28;46066;-72
2022/08/03 04:13:50;;;;;;;10.60;3.20;;;15.10;60.50;;;;;;5057188;28;46745;-72
2022/08/03 04:16:20;;;;;;;10.27;3.00;;;15.10;60.10;;;;;;5059949;28;46474;-71
2022/08/03 04:18:49;;;;;;;8.50;2.27;;;15.20;60.00;;;;;;5060896;28;46416;-71
2022/08/03 04:21:18;;;;;;;9.00;3.00;;;15.30;60.10;;;;;;5059821;28;46437;-71
2022/08/03 04:23:49;;;;;;;8.93;4.00;;;15.30;60.10;;;;;;5060922;28;47281;-71
2022/08/03 04:26:20;;;;;;;6.10;3.00;;;15.30;60.10;;;;;;5070097;28;46509;-74
2022/08/03 04:28:46;;;;;;;6.10;2.63;;;15.30;60.10;;;;;;5059047;28;46339;-72
2022/08/03 04:31:13;;;;;;;7.43;2.60;;;15.60;60.40;;;;;;5060231;28;46200;-72
2022/08/03 04:33:40;;;;;;;7.00;2.63;;;15.40;60.00;;;;;;5060392;27;46442;-72
2022/08/03 04:36:08;;;;;;;8.73;2.80;;;15.40;60.00;;;;;;5061677;28;46472;-72
2022/08/03 04:38:43;;;;;;;5.97;2.60;;;15.50;60.00;;;;;;5057785;28;46539;-73
2022/08/03 04:41:09;;;;;;;5.00;2.50;;;15.60;60.00;;;;;;5060521;28;46746;-72
2022/08/03 04:43:38;;;;;;;4.20;2.47;;;15.60;59.80;;;;;;5060217;28;46297;-72
2022/08/03 04:46:05;;;;;;;8.87;3.13;;;15.60;59.70;;;;;;5059658;28;46409;-72
2022/08/03 04:48:31;;;;;;;5.87;2.63;;;15.70;59.70;;;;;;5060741;28;45876;-72
2022/08/03 04:50:57;;;;;;;10.03;2.60;;;15.70;59.60;;;;;;5062099;28;46588;-72
2022/08/03 04:53:22;;;;;;;9.40;3.57;;;15.80;59.50;;;;;;5060515;28;46506;-72
2022/08/03 04:55:48;;;;;;;7.67;3.20;;;15.90;59.40;;;;;;5063420;28;46310;-73
2022/08/03 04:58:14;;;;;;;10.20;2.67;;;16.00;59.10;;;;;;5062104;28;46276;-72
2022/08/03 05:00:39;;;;;;;8.83;2.73;;;16.20;58.80;;;;;;5062907;27;46392;-72
2022/08/03 05:03:05;;;;;;;4.40;2.60;;;17.10;58.30;;;;;;5059324;28;47242;-72
2022/08/03 05:05:31;;;;;;;10.47;3.30;;;18.70;56.70;;;;;;5062299;28;46381;-72
2022/08/03 05:07:56;;;;;;;9.37;2.20;;;20.30;53.90;;;;;;5060111;28;46440;-71
2022/08/03 05:10:22;;;;;;;4.00;1.80;;;21.70;50.10;;;;;;5061183;28;46447;-72
2022/08/03 05:12:50;;;;;;;6.20;2.40;;;23.80;43.90;;;;;;5060020;28;46433;-72
2022/08/03 05:15:16;;;;;;;8.13;2.30;;;23.90;44.60;;;;;;5060564;28;46672;-72
2022/08/03 05:17:41;;;;;;;4.10;1.80;;;24.70;42.30;;;;;;5059949;28;46428;-73
2022/08/03 05:20:08;;;;;;;4.50;2.40;;;24.60;41.60;;;;;;5059213;28;46455;-73
2022/08/03 05:22:33;;;;;;;5.00;2.23;;;25.20;39.70;;;;;;5060588;28;47095;-72
2022/08/03 05:25:00;;;;;;;5.10;1.97;;;26.00;37.30;;;;;;5060470;28;46469;-73
2022/08/03 05:27:26;;;;;;;5.70;2.50;;;26.80;34.70;;;;;;5060834;28;46350;-70
2022/08/03 05:29:51;;;;;;;7.13;2.57;;;27.60;32.10;;;;;;5061358;28;46612;-70
2022/08/03 05:32:17;;;;;;;5.50;2.73;;;28.30;29.70;;;;;;5061107;28;47114;-70
2022/08/03 05:34:43;;;;;;;6.33;2.40;;;29.00;27.60;;;;;;5061001;28;46444;-70
2022/08/03 05:37:09;;;;;;;5.07;2.30;;;29.50;25.80;;;;;;5060659;28;46528;-69
2022/08/03 05:39:35;;;;;;;3.90;2.33;;;30.00;24.00;;;;;;5061524;28;46429;-71
2022/08/03 05:42:01;;;;;;;5.93;2.30;;;30.60;22.30;;;;;;5059702;28;46480;-73
2022/08/03 05:44:27;;;;;;;6.40;2.30;;;31.10;20.90;;;;;;5056149;28;46797;-71
2022/08/03 05:46:53;;;;;;;6.60;2.60;;;31.40;20.00;;;;;;5056192;28;46516;-71
2022/08/03 05:49:19;;;;;;;5.13;2.20;;;31.70;19.10;;;;;;5060231;28;46453;-70
2022/08/03 05:51:44;;;;;;;3.70;2.40;;;31.80;18.50;;;;;;5058114;28;46756;-70
2022/08/03 05:54:10;;;;;;;4.00;2.20;;;31.80;18.50;;;;;;5058142;28;46425;-69
2022/08/03 05:56:36;;;;;;;7.90;2.97;;;31.80;18.50;;;;;;5058375;28;45822;-70
2022/08/03 05:59:02;;;;;;;8.93;2.20;;;32.00;17.70;;;;;;5059988;28;46371;-69
2022/08/03 06:01:28;;;;;;;3.60;2.20;;;32.20;17.10;;;;;;5060112;28;47182;-70
2022/08/03 06:03:54;;;;;;;3.60;2.60;;;32.40;16.20;;;;;;5059997;28;46445;-69
2022/08/03 06:06:20;;;;;;;4.83;2.60;;;32.70;15.50;;;;;;5060223;28;46569;-69
2022/08/03 06:08:47;;;;;;;4.43;2.23;;;32.80;15.10;;;;;;5059958;28;46632;-69
2022/08/03 06:11:13;;;;;;;3.27;1.87;;;32.90;14.90;;;;;;5060389;28;47325;-69
2022/08/03 06:13:39;;;;;;;5.57;2.10;;;33.10;14.30;;;;;;5060587;28;46413;-69
2022/08/03 06:16:05;;;;;;;3.47;2.23;;;33.10;13.90;;;;;;5058807;28;46074;-69
2022/08/03 06:18:30;;;;;;;3.90;2.40;;;33.20;13.60;;;;;;5059036;28;46305;-69
2022/08/03 06:20:56;;;;;;;3.60;2.23;;;33.30;13.10;;;;;;5059957;28;46402;-69
2022/08/03 06:23:21;;;;;;;4.47;2.40;;;33.20;12.50;;;;;;5058598;28;46402;-69
2022/08/03 06:25:47;;;;;;;9.10;2.70;;;33.50;11.50;;;;;;5059211;28;46210;-70
2022/08/03 06:28:13;;;;;;;5.00;1.97;;;33.30;11.90;;;;;;5058405;28;46318;-71
2022/08/03 06:30:39;;;;;;;4.07;2.40;;;31.80;15.70;;;;;;5059824;28;46406;-71
2022/08/03 06:33:05;;;;;;;5.00;2.53;;;30.30;19.00;;;;;;5062328;28;46447;-71
2022/08/03 06:35:30;;;;;;;5.10;2.37;;;29.40;20.80;;;;;;5062740;28;46433;-71
2022/08/03 06:37:56;;;;;;;12.83;2.50;;;28.80;21.80;;;;;;5062965;28;46412;-69
2022/08/03 06:40:30;;;;;;;5.73;2.20;;;29.30;19.30;;;;;;5062071;28;47578;-69
2022/08/03 06:42:57;;;;;;;5.40;2.00;;;31.40;12.40;;;;;;5063543;28;46429;-68
2022/08/03 06:45:23;;;;;;;3.17;2.00;;;31.50;12.90;;;;;;5061983;28;46739;-68
2022/08/03 06:48:08;;;;;;;9.13;2.40;;;32.10;11.10;;;;;;5061626;28;46578;-69
2022/08/03 06:50:36;;;;;;;7.43;2.03;;;32.60;9.70;;;;;;5071559;27;46656;-70
2022/08/03 06:53:02;;;;;;;6.23;1.93;;;33.00;9.00;;;;;;5063169;28;46405;-70
2022/08/03 06:55:27;;;;;;;2.87;2.03;;;33.30;8.30;;;;;;5061198;28;46441;-71
2022/08/03 06:57:53;;;;;;;5.80;2.20;;;33.40;8.00;;;;;;5063235;28;45787;-71
2022/08/03 07:00:19;;;;;;;4.60;2.47;;;33.40;8.00;;;;;;5063130;28;46445;-71
2022/08/03 07:02:46;;;;;;;4.10;2.57;;;31.60;11.90;;;;;;5062219;28;46705;-71
2022/08/03 07:05:12;;;;;;;3.77;2.10;;;31.50;12.80;;;;;;5061681;28;46381;-71
2022/08/03 07:07:38;;;;;;;5.77;2.00;;;30.20;15.70;;;;;;5061898;28;46366;-71
2022/08/03 07:10:05;;;;;;;4.40;1.87;;;29.40;17.60;;;;;;5060856;28;45985;-70
2022/08/03 07:12:31;;;;;;;4.53;2.40;;;28.80;19.10;;;;;;5069649;28;45746;-70
2022/08/03 07:14:59;;;;;;;5.43;2.00;;;28.30;19.70;;;;;;5060877;28;46757;-68
2022/08/03 07:17:25;;;;;;;2.90;1.90;;;27.80;20.50;;;;;;5064003;28;45949;-69
2022/08/03 07:19:50;;;;;;;5.77;1.90;;;27.60;20.90;;;;;;5066489;28;46468;-69
2022/08/03 07:22:16;;;;;;;2.60;1.70;;;27.50;20.70;;;;;;5064076;28;46384;-69
2022/08/03 07:24:41;;;;;;;5.93;2.10;;;27.20;20.70;;;;;;5056511;28;46794;-69
2022/08/03 07:27:08;;;;;;;5.90;2.17;;;27.00;21.00;;;;;;5057348;28;46527;-69
2022/08/03 07:29:34;;;;;;;3.90;2.03;;;26.90;21.00;;;;;;5059554;28;47190;-69
2022/08/03 07:32:00;;;;;;;4.00;2.20;;;26.80;21.30;;;;;;5064464;28;46435;-69
2022/08/03 07:34:26;;;;;;;3.17;2.03;;;26.50;21.90;;;;;;5059723;28;46286;-68
2022/08/03 07:36:52;;;;;;;4.20;1.97;;;26.60;22.20;;;;;;5060895;28;46650;-71
2022/08/03 07:39:17;;;;;;;4.17;2.03;;;26.70;22.10;;;;;;5061470;28;46311;-70
2022/08/03 07:41:43;;;;;;;3.13;2.10;;;26.80;22.20;;;;;;5062491;28;46519;-72
2022/08/03 07:44:09;;;;;;;4.80;2.10;;;27.00;22.00;;;;;;5059864;28;46547;-71
2022/08/03 07:46:34;;;;;;;5.53;2.63;;;27.00;21.90;;;;;;5061500;28;46426;-70
2022/08/03 07:49:00;;;;;;;2.50;1.50;;;27.00;22.00;;;;;;5060319;28;46455;-71
2022/08/03 07:51:26;;;;;;;4.20;2.07;;;26.90;22.10;;;;;;5060858;28;46474;-73
2022/08/03 07:53:51;;;;;;;5.97;1.90;;;26.80;22.30;;;;;;5061831;28;46486;-72
2022/08/03 07:56:18;;;;;;;3.30;2.00;;;26.70;22.50;;;;;;5061920;28;45866;-71
2022/08/03 07:58:44;;;;;;;4.90;1.90;;;26.70;22.30;;;;;;5061924;28;46779;-72
2022/08/03 08:01:09;;;;;;;3.77;2.10;;;26.90;22.30;;;;;;5062041;28;46413;-71
2022/08/03 08:03:35;;;;;;;4.27;2.17;;;27.10;21.80;;;;;;5059938;28;46316;-72
2022/08/03 08:06:00;;;;;;;2.87;1.70;;;27.20;21.70;;;;;;5061935;28;46579;-71
2022/08/03 08:08:26;;;;;;;3.10;1.60;;;27.10;21.90;;;;;;5059406;28;47009;-72
2022/08/03 08:10:52;;;;;;;2.70;1.60;;;27.10;21.70;;;;;;5060537;28;46427;-71
2022/08/03 08:13:17;;;;;;;4.40;1.63;;;27.30;21.50;;;;;;5061959;28;46461;-72
2022/08/03 08:15:43;;;;;;;2.40;1.60;;;27.50;21.40;;;;;;5060591;28;46362;-70
2022/08/03 08:18:09;;;;;;;5.13;1.87;;;27.60;20.80;;;;;;5060446;28;46524;-70
2022/08/03 08:20:38;;;;;;;3.20;1.90;;;27.40;20.60;;;;;;5059481;28;46501;-70
2022/08/03 08:23:07;;;;;;;3.70;1.70;;;27.40;20.70;;;;;;5061318;28;46385;-70
2022/08/03 08:25:33;;;;;;;2.80;1.30;;;27.50;20.70;;;;;;5063730;28;46389;-70
2022/08/03 08:28:01;;;;;;;4.00;1.50;;;27.40;20.50;;;;;;5060079;28;46391;-71
2022/08/03 08:30:27;;;;;;;2.80;1.50;;;27.30;20.30;;;;;;5060879;28;45785;-70
2022/08/03 08:32:52;;;;;;;4.73;1.37;;;27.60;18.60;;;;;;5060036;28;46482;-72
2022/08/03 08:35:18;;;;;;;3.43;1.63;;;27.60;19.10;;;;;;5060543;28;46483;-70
2022/08/03 08:37:45;;;;;;;2.47;1.50;;;27.70;18.90;;;;;;5060460;28;46424;-71
2022/08/03 08:40:12;;;;;;;3.07;1.90;;;27.80;18.70;;;;;;5060888;28;46445;-69
2022/08/03 08:42:39;;;;;;;4.10;1.63;;;28.00;17.50;;;;;;5062556;28;46412;-71
2022/08/03 08:45:07;;;;;;;3.50;2.00;;;28.00;18.40;;;;;;5060855;28;46450;-69
2022/08/03 08:47:36;;;;;;;4.13;1.50;;;28.20;17.90;;;;;;5058813;28;47070;-71
2022/08/03 08:50:02;;;;;;;4.73;1.70;;;28.10;18.10;;;;;;5068199;28;46361;-71
2022/08/03 08:52:29;;;;;;;3.03;1.67;;;28.10;17.70;;;;;;5067275;28;45782;-70
2022/08/03 08:54:59;;;;;;;3.53;1.50;;;28.00;17.50;;;;;;5058613;28;46013;-70
2022/08/03 08:57:32;;;;;;;6.63;1.30;;;28.10;17.50;;;;;;5060302;28;46837;-71
2022/08/03 09:00:00;;;;;;;3.07;1.70;;;28.40;17.30;;;;;;5060736;28;46784;-70
2022/08/03 09:02:29;;;;;;;2.97;1.50;;;28.50;16.80;;;;;;5061468;28;46441;-70
2022/08/03 09:04:55;;;;;;;2.73;1.50;;;28.50;16.30;;;;;;5060699;28;46557;-69
2022/08/03 09:07:20;;;;;;;2.77;1.50;;;28.70;16.60;;;;;;5059541;28;47208;-70
2022/08/03 09:09:47;;;;;;;2.87;1.50;;;28.80;16.30;;;;;;5059415;28;46306;-70
2022/08/03 09:12:12;;;;;;;2.40;1.40;;;28.90;16.50;;;;;;5060810;28;46534;-71
2022/08/03 09:14:38;;;;;;;2.43;1.40;;;28.90;16.20;;;;;;5059948;28;46118;-70
2022/08/03 09:17:04;;;;;;;4.27;1.50;;;28.80;16.70;;;;;;5060009;28;46430;-71
2022/08/03 09:19:31;;;;;;;2.80;1.70;;;28.40;16.00;;;;;;5061777;28;46372;-71
2022/08/03 09:22:15;;;;;;;2.47;1.47;;;28.30;15.80;;;;;;5060866;28;46521;-70
2022/08/03 09:25:03;;;;;;;3.80;1.40;;;28.50;15.50;;;;;;5057041;28;46456;-70
2022/08/03 09:27:40;;;;;;;2.47;1.40;;;28.90;15.00;;;;;;5059054;28;45919;-71
2022/08/03 09:30:15;;;;;;;3.50;1.67;;;29.10;14.90;;;;;;5059426;28;46385;-71
2022/08/03 09:32:43;;;;;;;4.73;1.70;;;29.10;14.00;;;;;;5060917;28;46358;-70
2022/08/03 09:35:10;;;;;;;3.80;1.43;;;29.00;14.70;;;;;;5060014;28;46484;-71
2022/08/03 09:37:36;;;;;;;3.33;1.43;;;29.00;14.90;;;;;;5059654;28;46400;-72
2022/08/03 09:40:03;;;;;;;3.97;2.00;;;28.90;14.40;;;;;;5056357;28;46325;-71
2022/08/03 09:42:28;;;;;;;2.93;1.60;;;28.80;14.10;;;;;;5060356;28;46837;-72
2022/08/03 09:44:54;;;;;;;4.70;1.70;;;28.80;14.20;;;;;;5058897;28;46355;-70
2022/08/03 09:47:31;;;;;;;3.70;1.90;;;29.00;14.40;;;;;;5059675;28;46156;-72
2022/08/03 09:50:07;;;;;;;4.10;1.77;;;29.30;14.20;;;;;;5063855;28;46365;-70
2022/08/03 09:52:37;;;;;;;3.80;1.90;;;29.20;13.40;;;;;;5058889;28;46739;-69
2022/08/03 09:55:11;;;;;;;4.40;1.87;;;29.20;13.10;;;;;;5058288;28;46599;-71
2022/08/03 09:57:39;;;;;;;2.83;1.57;;;29.20;12.90;;;;;;5055831;28;47183;-70
2022/08/03 10:00:10;;;;;;;3.07;1.50;;;29.20;13.10;;;;;;5060983;28;45902;-70
2022/08/03 10:02:37;;;;;;;5.00;1.60;;;29.10;12.50;;;;;;5058728;28;46366;-70
2022/08/03 10:05:04;;;;;;;2.97;1.57;;;29.10;11.70;;;;;;5057934;28;46434;-70
2022/08/03 10:07:40;;;;;;;4.60;1.70;;;29.20;12.50;;;;;;5057251;28;46173;-71
2022/08/03 10:10:06;;;;;;;6.03;1.80;;;29.20;11.90;;;;;;5059833;28;46366;-70
2022/08/03 10:12:33;;;;;;;3.27;1.53;;;29.00;12.00;;;;;;5059131;28;46372;-70
2022/08/03 10:14:58;;;;;;;3.00;1.60;;;28.80;12.60;;;;;;5058931;28;46339;-68
2022/08/03 10:17:24;;;;;;;3.27;1.37;;;28.80;11.80;;;;;;5058818;28;46416;-70
2022/08/03 10:19:49;;;;;;;2.33;1.40;;;29.10;12.00;;;;;;5059278;28;46756;-68
2022/08/03 10:22:21;;;;;;;2.97;1.60;;;29.40;12.00;;;;;;5059993;28;45871;-69
2022/08/03 10:24:55;;;;;;;4.33;1.67;;;29.60;12.00;;;;;;5057583;28;46473;-70
2022/08/03 10:27:22;;;;;;;2.70;1.70;;;29.70;11.50;;;;;;5055577;28;47131;-69
2022/08/03 10:29:54;;;;;;;3.50;1.67;;;29.70;11.40;;;;;;5059461;28;46454;-70
2022/08/03 10:32:56;;;;;;;7.10;1.50;;;29.60;11.10;;;;;;5060263;28;46447;-70
2022/08/03 10:35:24;;;;;;;3.97;1.60;;;27.20;9.70;;;;;;5058332;28;46437;-71
2022/08/03 10:38:02;;;;;;;2.60;1.30;;;29.70;11.30;;;;;;5057136;28;46470;-70
2022/08/03 10:40:30;;;;;;;10.93;2.00;;;29.90;11.80;;;;;;5057595;28;46452;-70
2022/08/03 10:43:06;;;;;;;3.03;1.60;;;29.70;10.50;;;;;;5059394;28;46489;-71
2022/08/03 10:45:35;;;;;;;5.40;1.43;;;29.70;10.90;;;;;;5058604;28;46831;-71
2022/08/03 10:48:01;;;;;;;4.60;1.93;;;29.70;11.00;;;;;;5058590;28;46154;-70
2022/08/03 10:50:27;;;;;;;3.37;1.40;;;29.70;10.80;;;;;;5058399;28;46477;-70
2022/08/03 10:53:01;;;;;;;2.40;1.57;;;29.50;10.00;;;;;;5059746;28;46380;-71
2022/08/03 10:58:52;;;;;;;4.33;1.73;;;29.30;10.60;;;;;;5059317;28;46786;-68
2022/08/03 11:01:39;;;;;;;4.60;1.97;;;29.30;10.60;;;;;;5057104;28;46470;-71
2022/08/03 11:04:04;;;;;;;2.93;1.60;;;29.40;9.50;;;;;;5056149;28;46197;-71
2022/08/03 11:06:30;;;;;;;4.60;1.70;;;29.30;10.20;;;;;;5059855;28;46743;-71
2022/08/03 11:09:15;;;;;;;5.10;1.70;;;29.40;10.00;;;;;;5056981;28;46291;-72
2022/08/03 11:11:43;;;;;;;3.30;1.67;;;29.70;10.00;;;;;;5056291;28;46705;-72
2022/08/03 11:14:20;;;;;;;3.00;1.80;;;29.80;9.40;;;;;;5057894;28;45869;-71
2022/08/03 11:17:06;;;;;;;2.80;1.60;;;29.90;10.50;;;;;;5058099;28;46370;-72
2022/08/03 11:19:52;;;;;;;2.63;1.40;;;30.00;9.90;;;;;;5063153;28;46459;-72
2022/08/03 11:22:19;;;;;;;3.60;1.50;;;29.90;9.70;;;;;;5060683;28;46488;-72
2022/08/03 11:24:46;;;;;;;3.20;1.53;;;29.80;8.80;;;;;;5063561;28;45782;-72
2022/08/03 11:27:15;;;;;;;3.43;1.50;;;29.80;10.00;;;;;;5066048;28;46408;-72
2022/08/03 11:29:59;;;;;;;3.70;1.80;;;29.90;8.80;;;;;;5071218;28;46420;-71
2022/08/03 11:32:37;;;;;;;3.03;1.80;;;30.00;8.00;;;;;;5061716;28;45931;-71
2022/08/03 11:35:07;;;;;;;5.20;1.90;;;30.20;7.30;;;;;;5056205;28;46992;-70
2022/08/03 11:37:32;;;;;;;4.63;1.50;;;30.30;8.20;;;;;;5061407;28;46432;-69
2022/08/03 11:39:58;;;;;;;11.63;1.90;;;30.40;8.20;;;;;;5060160;28;46571;-70
2022/08/03 11:42:25;;;;;;;7.63;2.07;;;30.30;8.00;;;;;;5060879;28;47338;-72
2022/08/03 11:44:56;;;;;;;2.70;1.47;;;30.20;6.80;;;;;;5061501;28;46537;-71
2022/08/03 11:47:25;;;;;;;3.07;1.67;;;30.00;7.60;;;;;;5062195;28;46378;-71
2022/08/03 11:49:57;;;;;;;7.83;1.63;;;29.90;7.70;;;;;;5062000;28;47359;-70
2022/08/03 11:52:23;;;;;;;3.17;1.50;;;29.90;7.70;;;;;;5060115;28;46421;-71
2022/08/03 11:54:53;;;;;;;3.20;1.70;;;30.10;7.60;;;;;;5060328;28;46445;-71
2022/08/03 11:57:32;;;;;;;2.83;1.67;;;30.10;6.70;;;;;;5059609;28;46329;-69
2022/08/03 11:59:57;;;;;;;2.67;1.63;;;30.10;6.40;;;;;;5061482;28;46208;-71
2022/08/03 12:02:23;;;;;;;5.80;1.50;;;30.20;7.00;;;;;;5058892;28;46101;-70
2022/08/03 12:05:00;;;;;;;6.20;1.80;;;30.20;7.10;;;;;;5061709;28;46369;-69
2022/08/03 12:07:28;;;;;;;3.47;1.77;;;29.90;6.10;;;;;;5057238;28;46494;-69
2022/08/03 12:10:10;;;;;;;4.43;1.80;;;30.00;6.10;;;;;;5059085;28;46041;-70
2022/08/03 12:12:37;;;;;;;7.10;1.77;;;30.20;6.30;;;;;;5059584;28;46538;-71
2022/08/03 12:15:04;;;;;;;3.77;1.70;;;30.20;6.30;;;;;;5060743;28;46750;-71
2022/08/03 12:17:38;;;;;;;3.60;2.03;;;30.30;6.30;;;;;;5059265;28;46378;-70
2022/08/03 12:20:06;;;;;;;2.93;1.60;;;30.20;6.30;;;;;;5058875;28;47031;-67
2022/08/03 12:22:38;;;;;;;4.27;1.60;;;30.20;5.70;;;;;;5062602;28;46469;-71
2022/08/03 12:25:20;;;;;;;3.30;1.60;;;30.30;5.50;;;;;;5055466;28;46462;-73
2022/08/03 12:27:45;;;;;;;3.97;1.67;;;30.40;5.50;;;;;;5058360;28;46473;-72
2022/08/03 12:30:12;;;;;;;3.23;1.73;;;30.60;5.70;;;;;;5060189;28;46465;-68
2022/08/03 12:32:37;;;;;;;4.23;2.00;;;30.60;5.70;;;;;;5060006;28;46379;-70
2022/08/03 12:35:04;;;;;;;3.20;1.50;;;30.50;5.20;;;;;;5061616;28;46500;-70
2022/08/03 12:37:31;;;;;;;4.97;1.60;;;30.40;5.30;;;;;;5060560;28;46650;-73
2022/08/03 12:40:00;;;;;;;4.47;1.70;;;30.40;5.10;;;;;;5061761;28;46362;-70
2022/08/03 12:42:36;;;;;;;3.50;1.53;;;30.40;5.00;;;;;;5056746;28;45816;-70
2022/08/03 12:45:22;;;;;;;6.10;1.67;;;30.50;5.00;;;;;;5057124;28;46778;-72
2022/08/03 12:47:53;;;;;;;3.70;1.50;;;30.60;4.70;;;;;;5058849;28;47303;-69
2022/08/03 12:50:33;;;;;;;2.20;1.30;;;30.60;4.60;;;;;;5061343;28;46376;-71
2022/08/03 12:53:01;;;;;;;2.90;1.57;;;30.60;3.30;;;;;;5060261;28;46427;-72
2022/08/03 12:55:32;;;;;;;3.80;1.47;;;30.70;3.90;;;;;;5059459;28;46372;-71
2022/08/03 12:58:09;;;;;;;4.93;1.60;;;30.90;3.90;;;;;;5060457;28;46432;-71
2022/08/03 13:00:35;;;;;;;2.60;1.40;;;31.00;3.60;;;;;;5060697;28;46387;-70
2022/08/03 13:03:06;;;;;;;2.57;1.33;;;31.10;3.60;;;;;;5061461;28;46403;-71
2022/08/03 13:05:45;;;;;;;3.03;1.67;;;31.10;3.60;;;;;;5060282;28;46460;-71